Time;durP1;ratioP1;P1;durP2;ratioP2;P2;SDS_P1;SDS_P2;PMS_P1;PMS_P2;Temp;Humidity;BMP_temperature;BMP_pressure;BME280_temperature;BME280_humidity;BME280_pressure;Samples;Min_cycle;Max_cycle;Signal;HPM_P1;HPM_P2
2023/08/28 00:00:03;;;;;;;0.40;0.40;;;;;;;14.06;100.00;96525.03;29395;203;63005;-66
2023/08/28 00:00:35;;;;;;;0.40;0.40;;;;;;;14.06;100.00;96520.38;29395;249;63009;-66
2023/08/28 00:01:11;;;;;;;0.40;0.40;;;;;;;14.04;100.00;96508.19;29394;203;64009;-66
2023/08/28 00:01:46;;;;;;;0.40;0.40;;;;;;;14.03;100.00;96515.56;29395;217;63009;-65
2023/08/28 00:02:17;;;;;;;0.40;0.40;;;;;;;14.02;100.00;96513.16;29395;202;63005;-65
2023/08/28 00:02:48;;;;;;;0.50;0.50;;;;;;;14.01;100.00;96512.38;29395;213;63009;-63
2023/08/28 00:03:24;;;;;;;0.40;0.40;;;;;;;14.00;100.00;96510.75;29395;199;63004;-65
2023/08/28 00:03:55;;;;;;;0.47;0.47;;;;;;;14.00;100.00;96515.41;29395;232;63009;-64
2023/08/28 00:04:26;;;;;;;0.40;0.40;;;;;;;13.99;100.00;96513.81;29395;215;63004;-64
2023/08/28 00:04:57;;;;;;;0.40;0.40;;;;;;;13.98;100.00;96512.22;29395;215;63009;-66
2023/08/28 00:05:30;;;;;;;0.47;0.47;;;;;;;13.96;100.00;96515.25;29395;207;63004;-65
2023/08/28 00:06:02;;;;;;;0.43;0.43;;;;;;;13.95;100.00;96512.84;29395;297;63008;-65
2023/08/28 00:06:33;;;;;;;0.47;0.47;;;;;;;13.93;100.00;96513.19;29394;275;64008;-65
2023/08/28 00:07:06;;;;;;;0.50;0.50;;;;;;;13.90;100.00;96505.63;29395;281;63009;-65
2023/08/28 00:07:40;;;;;;;0.50;0.50;;;;;;;13.89;100.00;96509.50;29395;204;63005;-66
2023/08/28 00:08:11;;;;;;;0.40;0.40;;;;;;;13.89;100.00;96508.69;29395;204;63009;-66
2023/08/28 00:08:42;;;;;;;0.40;0.40;;;;;;;13.87;100.00;96505.47;29395;229;63005;-66
2023/08/28 00:09:14;;;;;;;0.50;0.50;;;;;;;13.88;100.00;96510.63;29395;242;63009;-67
2023/08/28 00:09:45;;;;;;;0.40;0.40;;;;;;;13.89;100.00;96501.31;29395;216;63005;-66
2023/08/28 00:10:17;;;;;;;0.40;0.40;;;;;;;13.87;100.00;96500.81;29395;202;63009;-54
2023/08/28 00:10:48;;;;;;;0.50;0.50;;;;;;;13.86;100.00;96504.69;29395;225;63000;-54
2023/08/28 00:11:19;;;;;;;0.40;0.40;;;;;;;13.86;100.00;96506.62;29395;243;63009;-64
2023/08/28 00:11:57;;;;;;;0.40;0.40;;;;;;;13.83;100.00;96505.34;29394;236;64009;-65
2023/08/28 00:12:28;;;;;;;0.50;0.50;;;;;;;13.80;100.00;96506.00;29395;243;63009;-65
2023/08/28 00:13:03;;;;;;;0.43;0.43;;;;;;;13.77;100.00;96501.19;29395;197;63004;-66
2023/08/28 00:13:36;;;;;;;0.50;0.50;;;;;;;13.75;100.00;96503.44;29395;224;63008;-65
2023/08/28 00:14:08;;;;;;;0.40;0.40;;;;;;;13.75;100.00;96506.16;29395;223;63004;-54
2023/08/28 00:14:43;;;;;;;0.40;0.40;;;;;;;13.72;100.00;96498.62;29395;222;63014;-53
2023/08/28 00:15:14;;;;;;;0.50;0.50;;;;;;;13.70;100.00;96496.22;29395;277;63008;-65
2023/08/28 00:15:45;;;;;;;0.50;0.50;;;;;;;13.68;100.00;96492.19;29395;204;63009;-54
2023/08/28 00:16:19;;;;;;;0.40;0.40;;;;;;;13.66;100.00;96503.44;29395;267;63005;-64
2023/08/28 00:16:50;;;;;;;0.40;0.40;;;;;;;13.65;100.00;96498.28;29395;235;63009;-65
2023/08/28 00:17:22;;;;;;;0.40;0.40;;;;;;;13.63;100.00;96497.81;29394;238;64009;-64
2023/08/28 00:17:53;;;;;;;0.40;0.40;;;;;;;13.61;100.00;96495.41;29395;202;63009;-66
2023/08/28 00:18:24;;;;;;;0.40;0.40;;;;;;;13.60;100.00;96495.72;29395;302;63004;-54
2023/08/28 00:18:57;;;;;;;0.50;0.50;;;;;;;13.60;100.00;96496.53;29395;233;63009;-65
2023/08/28 00:19:28;;;;;;;0.47;0.47;;;;;;;13.60;100.00;96503.91;29395;205;63004;-66
2023/08/28 00:20:00;;;;;;;0.50;0.50;;;;;;;13.60;100.00;96490.28;29394;281;64013;-65
2023/08/28 00:20:31;;;;;;;0.50;0.50;;;;;;;13.62;100.00;96499.75;29395;226;63000;-65
2023/08/28 00:21:03;;;;;;;0.50;0.50;;;;;;;13.61;100.00;96497.34;29395;220;63009;-67
2023/08/28 00:21:38;;;;;;;0.47;0.47;;;;;;;13.60;100.00;96501.19;29395;241;63001;-64
2023/08/28 00:22:12;;;;;;;0.50;0.50;;;;;;;13.55;100.00;96510.31;29395;280;63017;-67
2023/08/28 00:22:43;;;;;;;0.40;0.40;;;;;;;13.53;100.00;96509.84;29394;198;64009;-64
2023/08/28 00:23:18;;;;;;;0.40;0.40;;;;;;;13.52;100.00;96510.16;29395;232;63009;-65
2023/08/28 00:23:50;;;;;;;0.50;0.50;;;;;;;13.51;100.00;96509.38;29394;233;64009;-55
2023/08/28 00:24:21;;;;;;;0.40;0.40;;;;;;;13.50;100.00;96506.97;29395;242;63009;-65
2023/08/28 00:24:52;;;;;;;0.40;0.40;;;;;;;13.51;100.00;96508.59;29395;217;63005;-66
2023/08/28 00:25:23;;;;;;;0.40;0.40;;;;;;;13.52;100.00;96507.44;29395;204;63009;-65
2023/08/28 00:25:55;;;;;;;0.40;0.40;;;;;;;13.52;100.00;96508.22;29394;229;64009;-65
2023/08/28 00:26:27;;;;;;;0.40;0.40;;;;;;;13.50;100.00;96507.78;29395;221;63009;-66
2023/08/28 00:26:58;;;;;;;0.40;0.40;;;;;;;13.48;100.00;96506.50;29395;235;63004;-65
2023/08/28 00:27:31;;;;;;;0.40;0.40;;;;;;;13.47;100.00;96496.72;29395;202;63009;-65
2023/08/28 00:28:04;;;;;;;0.50;0.50;;;;;;;13.47;100.00;96499.44;29395;227;63004;-65
2023/08/28 00:28:35;;;;;;;0.40;0.40;;;;;;;13.46;100.00;96495.09;29395;245;63009;-66
2023/08/28 00:29:07;;;;;;;0.40;0.40;;;;;;;13.44;100.00;96491.91;29395;203;63014;-65
2023/08/28 00:29:38;;;;;;;0.40;0.40;;;;;;;13.43;100.00;96484.84;29394;227;64007;-66
2023/08/28 00:30:12;;;;;;;0.40;0.40;;;;;;;13.43;100.00;96484.84;29395;246;63008;-65
2023/08/28 00:30:43;;;;;;;0.40;0.40;;;;;;;13.41;100.00;96479.72;29395;226;63009;-54
2023/08/28 00:31:14;;;;;;;0.40;0.40;;;;;;;13.40;100.00;96487.09;29394;236;64009;-66
2023/08/28 00:31:46;;;;;;;0.40;0.40;;;;;;;13.38;100.00;96478.44;29395;219;63009;-54
2023/08/28 00:32:17;;;;;;;0.40;0.40;;;;;;;13.37;100.00;96479.56;29395;259;63008;-65
2023/08/28 00:32:50;;;;;;;0.40;0.40;;;;;;;13.36;100.00;96477.94;29394;235;64013;-65
2023/08/28 00:33:25;;;;;;;0.40;0.40;;;;;;;13.36;100.00;96480.69;29395;210;63004;-54
2023/08/28 00:33:56;;;;;;;0.40;0.40;;;;;;;13.37;100.00;96487.72;29395;196;63024;-65
2023/08/28 00:34:28;;;;;;;0.40;0.40;;;;;;;13.37;100.00;96487.72;29395;257;63007;-65
2023/08/28 00:34:59;;;;;;;0.40;0.40;;;;;;;13.37;100.00;96487.72;29395;221;63009;-54
2023/08/28 00:35:30;;;;;;;0.47;0.47;;;;;;;13.36;100.00;96490.78;29394;198;64008;-67
2023/08/28 00:36:02;;;;;;;0.40;0.40;;;;;;;13.34;100.00;96480.19;29395;197;63016;-65
2023/08/28 00:36:33;;;;;;;0.40;0.40;;;;;;;13.33;100.00;96484.03;29395;202;63005;-66
2023/08/28 00:37:05;;;;;;;0.40;0.40;;;;;;;13.32;100.00;96490.59;29395;200;63009;-64
2023/08/28 00:37:36;;;;;;;0.40;0.40;;;;;;;13.32;100.00;96485.16;29395;222;63005;-54
2023/08/28 00:38:13;;;;;;;0.40;0.40;;;;;;;13.32;100.00;96490.59;29394;224;64013;-64
2023/08/28 00:38:44;;;;;;;0.50;0.50;;;;;;;13.32;100.00;96490.59;29395;206;63008;-65
2023/08/28 00:39:15;;;;;;;0.50;0.50;;;;;;;13.32;100.00;96490.59;29395;198;63009;-66
2023/08/28 00:39:47;;;;;;;0.50;0.50;;;;;;;13.33;100.00;96497.66;29394;223;64009;-64
2023/08/28 00:40:18;;;;;;;0.40;0.40;;;;;;;13.35;100.00;96500.06;29395;204;63009;-66
2023/08/28 00:40:50;;;;;;;0.40;0.40;;;;;;;13.36;100.00;96497.03;29395;231;63004;-54
2023/08/28 00:41:22;;;;;;;0.40;0.40;;;;;;;13.37;100.00;96500.56;29394;214;64013;-66
2023/08/28 00:41:54;;;;;;;0.50;0.50;;;;;;;13.38;100.00;96511.13;29395;228;63004;-54
2023/08/28 00:42:25;;;;;;;0.40;0.40;;;;;;;13.39;100.00;96511.94;29395;248;63009;-53
2023/08/28 00:42:58;;;;;;;0.40;0.40;;;;;;;13.38;100.00;96510.31;29395;242;63004;-54
2023/08/28 00:43:29;;;;;;;0.40;0.40;;;;;;;13.36;100.00;96518.81;29395;206;63008;-65
2023/08/28 00:44:02;;;;;;;0.40;0.40;;;;;;;13.35;100.00;96522.66;29395;271;63005;-64
2023/08/28 00:44:33;;;;;;;0.50;0.50;;;;;;;13.35;100.00;96522.66;29394;205;64014;-65
2023/08/28 00:45:05;;;;;;;0.40;0.40;;;;;;;13.35;100.00;96528.13;29395;251;63005;-66
2023/08/28 00:45:43;;;;;;;0.50;0.50;;;;;;;13.37;100.00;96525.06;29395;223;63018;-66
2023/08/28 00:46:15;;;;;;;0.45;0.45;;;;;;;13.38;100.00;96527.47;29394;197;64005;-64
2023/08/28 00:46:47;;;;;;;0.40;0.40;;;;;;;13.38;100.00;96524.75;29395;261;63009;-65
2023/08/28 00:47:21;;;;;;;0.50;0.50;;;;;;;13.36;100.00;96526.19;29395;221;63005;-66
2023/08/28 00:47:52;;;;;;;0.50;0.50;;;;;;;13.35;100.00;96528.13;29395;250;63009;-66
2023/08/28 00:48:25;;;;;;;0.40;0.40;;;;;;;13.35;100.00;96533.56;29395;245;63004;-66
2023/08/28 00:48:57;;;;;;;0.40;0.40;;;;;;;13.36;100.00;96537.91;29395;278;63021;-66
2023/08/28 00:49:29;;;;;;;0.40;0.40;;;;;;;13.36;100.00;96529.72;29395;208;63004;-55
2023/08/28 00:50:02;;;;;;;0.40;0.40;;;;;;;13.31;100.00;96527.16;29394;208;64013;-65
2023/08/28 00:50:33;;;;;;;0.50;0.50;;;;;;;13.30;100.00;96531.00;29395;235;63004;-65
2023/08/28 00:51:05;;;;;;;0.50;0.50;;;;;;;13.31;100.00;96527.16;29395;198;63008;-66
2023/08/28 00:51:37;;;;;;;0.45;0.45;;;;;;;13.33;100.00;96529.56;29395;274;63005;-66
2023/08/28 00:52:09;;;;;;;0.50;0.50;;;;;;;13.34;100.00;96526.50;29395;209;63017;-65
2023/08/28 00:52:41;;;;;;;0.43;0.43;;;;;;;13.35;100.00;96522.66;29395;245;63005;-66
2023/08/28 00:53:13;;;;;;;0.40;0.40;;;;;;;13.34;100.00;96525.72;29395;222;63009;-65
2023/08/28 00:53:45;;;;;;;0.50;0.50;;;;;;;13.34;100.00;96529.25;29394;241;64009;-62
2023/08/28 00:54:16;;;;;;;0.40;0.40;;;;;;;13.35;100.00;96521.88;29395;231;63009;-65
2023/08/28 00:54:49;;;;;;;0.40;0.40;;;;;;;13.34;100.00;96523.78;29395;243;63005;-65
2023/08/28 00:55:20;;;;;;;0.50;0.50;;;;;;;13.33;100.00;96519.47;29394;202;64013;-65
2023/08/28 00:55:52;;;;;;;0.50;0.50;;;;;;;13.33;100.00;96518.66;29395;218;63004;-67
2023/08/28 00:56:23;;;;;;;0.40;0.40;;;;;;;13.33;100.00;96516.72;29395;245;63014;-66
2023/08/28 00:56:55;;;;;;;0.40;0.40;;;;;;;13.35;100.00;96522.66;29395;241;63016;-65
2023/08/28 00:57:27;;;;;;;0.47;0.47;;;;;;;13.32;100.00;96512.41;29394;198;64013;-65
2023/08/28 00:57:58;;;;;;;0.50;0.50;;;;;;;13.31;100.00;96513.53;29394;270;64008;-66
2023/08/28 00:58:31;;;;;;;0.50;0.50;;;;;;;13.33;100.00;96514.00;29395;218;63004;-66
2023/08/28 00:59:03;;;;;;;0.40;0.40;;;;;;;13.35;100.00;96517.22;29395;243;63008;-66
2023/08/28 00:59:35;;;;;;;0.40;0.40;;;;;;;13.35;100.00;96514.50;29395;244;63009;-65
2023/08/28 01:00:08;;;;;;;0.40;0.40;;;;;;;13.36;100.00;96513.38;29395;227;63005;-65
2023/08/28 01:00:51;;;;;;;0.40;0.40;;;;;;;13.32;100.00;96512.41;29395;238;63009;-67
2023/08/28 01:01:22;;;;;;;0.43;0.43;;;;;;;13.27;100.00;96515.28;29395;237;63005;-55
2023/08/28 01:01:54;;;;;;;0.40;0.40;;;;;;;13.24;100.00;96513.19;29395;243;63009;-65
2023/08/28 01:02:25;;;;;;;0.40;0.40;;;;;;;13.22;100.00;96507.25;29395;216;63009;-65
2023/08/28 01:02:56;;;;;;;0.40;0.40;;;;;;;13.21;100.00;96507.56;29394;220;64013;-65
2023/08/28 01:03:27;;;;;;;0.40;0.40;;;;;;;13.18;100.00;96506.28;29395;262;63004;-65
2023/08/28 01:03:59;;;;;;;0.40;0.40;;;;;;;13.16;100.00;96505.03;29395;204;63009;-67
2023/08/28 01:04:31;;;;;;;0.40;0.40;;;;;;;13.16;100.00;96503.09;29395;203;63010;-65
2023/08/28 01:05:04;;;;;;;0.40;0.40;;;;;;;13.16;100.00;96502.31;29395;234;63008;-67
2023/08/28 01:06:24;;;;;;;0.47;0.47;;;;;;;13.16;100.00;96508.56;29395;243;63004;-65
2023/08/28 01:07:31;;;;;;;0.40;0.40;;;;;;;13.18;100.00;96505.47;29395;218;63009;-64
2023/08/28 01:08:12;;;;;;;0.50;0.50;;;;;;;13.20;100.00;96508.69;29394;260;64013;-65
2023/08/28 01:09:13;;;;;;;0.50;0.50;;;;;;;13.20;100.00;96501.31;29395;214;63005;-64
2023/08/28 01:10:17;;;;;;;0.50;0.50;;;;;;;13.23;100.00;96502.59;29395;215;63009;-65
2023/08/28 01:10:58;;;;;;;0.40;0.40;;;;;;;13.24;100.00;96501.50;29395;229;63004;-65
2023/08/28 01:12:07;;;;;;;0.50;0.50;;;;;;;13.23;100.00;96503.41;29417;245;63009;-66
2023/08/28 01:13:16;;;;;;;0.50;0.50;;;;;;;13.26;100.00;96508.22;29395;216;63025;-65
2023/08/28 01:14:05;;;;;;;0.50;0.50;;;;;;;13.27;100.00;96509.84;29394;239;64009;-65
2023/08/28 01:14:53;;;;;;;0.50;0.50;;;;;;;13.26;100.00;96508.22;29394;221;64014;-64
2023/08/28 01:15:27;;;;;;;0.50;0.50;;;;;;;13.29;100.00;96514.97;29395;217;63005;-66
2023/08/28 01:15:59;;;;;;;0.50;0.50;;;;;;;13.30;100.00;96511.13;29395;284;63021;-64
2023/08/28 01:16:32;;;;;;;0.50;0.50;;;;;;;13.30;100.00;96514.66;29395;305;63005;-66
2023/08/28 01:17:07;;;;;;;0.47;0.47;;;;;;;13.29;100.00;96510.31;29395;222;63009;-55
2023/08/28 01:17:40;;;;;;;0.50;0.50;;;;;;;13.27;100.00;96512.56;29395;208;63015;-66
2023/08/28 01:18:13;;;;;;;0.50;0.50;;;;;;;13.26;100.00;96510.94;29395;297;63009;-54
2023/08/28 01:18:45;;;;;;;0.50;0.50;;;;;;;13.29;100.00;96501.34;29395;226;63004;-67
2023/08/28 01:19:35;;;;;;;0.50;0.50;;;;;;;13.30;100.00;96509.19;29395;210;63014;-66
2023/08/28 01:20:15;;;;;;;0.50;0.50;;;;;;;13.27;100.00;96509.84;29416;393;64008;-66
2023/08/28 01:20:47;;;;;;;0.50;0.50;;;;;;;13.26;100.00;96518.31;29395;312;63009;-65
2023/08/28 01:21:19;;;;;;;0.50;0.50;;;;;;;13.23;100.00;96514.31;29395;199;63005;-66
2023/08/28 01:22:00;;;;;;;0.50;0.50;;;;;;;13.23;100.00;96513.50;29395;219;63009;-66
2023/08/28 01:22:58;;;;;;;0.50;0.50;;;;;;;13.25;100.00;96522.97;29417;231;63005;-64
2023/08/28 01:23:54;;;;;;;0.50;0.50;;;;;;;13.25;100.00;96522.97;29395;209;63005;-65
2023/08/28 01:24:30;;;;;;;0.50;0.50;;;;;;;13.22;100.00;96518.16;29395;242;63009;-66
2023/08/28 01:25:13;;;;;;;0.50;0.50;;;;;;;13.20;100.00;96525.84;29395;216;63004;-65
2023/08/28 01:25:46;;;;;;;0.50;0.50;;;;;;;13.20;100.00;96527.75;29394;208;64013;-65
2023/08/28 01:26:17;;;;;;;0.50;0.50;;;;;;;13.20;100.00;96528.56;29395;311;63004;-65
2023/08/28 01:26:49;;;;;;;0.40;0.40;;;;;;;13.19;100.00;96529.69;29395;295;63009;-55
2023/08/28 01:27:22;;;;;;;0.40;0.40;;;;;;;13.16;100.00;96535.00;29395;216;63004;-65
2023/08/28 01:27:54;;;;;;;0.40;0.40;;;;;;;13.15;100.00;96526.00;29395;221;63008;-66
2023/08/28 01:28:26;;;;;;;0.40;0.40;;;;;;;13.16;100.00;96524.91;29395;219;63005;-54
2023/08/28 01:28:57;;;;;;;0.50;0.50;;;;;;;13.18;100.00;96527.28;29395;225;63009;-64
2023/08/28 01:29:30;;;;;;;0.50;0.50;;;;;;;13.16;100.00;96526.81;29395;280;63005;-55
2023/08/28 01:30:21;;;;;;;0.50;0.50;;;;;;;13.14;100.00;96527.09;29395;217;63009;-65
2023/08/28 01:30:53;;;;;;;0.47;0.47;;;;;;;13.15;100.00;96528.72;29394;224;64009;-65
2023/08/28 01:31:25;;;;;;;0.40;0.40;;;;;;;13.14;100.00;96527.09;29395;207;63009;-65
2023/08/28 01:31:56;;;;;;;0.40;0.40;;;;;;;13.13;100.00;96520.06;29395;229;63008;-66
2023/08/28 01:32:28;;;;;;;0.50;0.50;;;;;;;13.14;100.00;96527.09;29395;274;63009;-67
2023/08/28 01:32:59;;;;;;;0.50;0.50;;;;;;;13.15;100.00;96523.25;29395;223;63004;-66
2023/08/28 01:33:31;;;;;;;0.50;0.50;;;;;;;13.16;100.00;96529.53;29395;207;63009;-65
2023/08/28 01:34:09;;;;;;;0.50;0.50;;;;;;;13.17;100.00;96531.94;29395;213;63007;-66
2023/08/28 01:34:41;;;;;;;0.50;0.50;;;;;;;13.19;100.00;96532.41;29395;219;63019;-65
2023/08/28 01:35:24;;;;;;;0.50;0.50;;;;;;;13.18;100.00;96536.25;29395;232;63004;-64
2023/08/28 01:36:49;;;;;;;0.50;0.50;;;;;;;13.22;100.00;96528.25;29394;271;64014;-55
2023/08/28 01:37:21;;;;;;;0.50;0.50;;;;;;;13.26;100.00;96529.22;29395;221;63005;-66
2023/08/28 01:38:26;;;;;;;0.50;0.50;;;;;;;13.26;100.00;96527.28;29395;235;63017;-65
2023/08/28 01:39:05;;;;;;;0.50;0.50;;;;;;;13.29;100.00;96529.38;29395;225;63009;-66
2023/08/28 01:39:44;;;;;;;0.50;0.50;;;;;;;13.24;100.00;96529.53;29395;212;63004;-54
2023/08/28 01:40:18;;;;;;;0.50;0.50;;;;;;;13.20;100.00;96525.03;29395;233;63009;-55
2023/08/28 01:41:05;;;;;;;0.50;0.50;;;;;;;13.17;100.00;96528.44;29395;224;63004;-64
2023/08/28 01:41:41;;;;;;;0.50;0.50;;;;;;;13.18;100.00;96525.34;29394;307;64013;-64
2023/08/28 01:42:14;;;;;;;0.50;0.50;;;;;;;13.20;100.00;96531.28;29395;262;63004;-54
2023/08/28 01:42:47;;;;;;;0.50;0.50;;;;;;;13.20;100.00;96525.84;29395;197;63008;-65
2023/08/28 01:43:24;;;;;;;0.40;0.40;;;;;;;13.20;100.00;96534.00;29395;202;63005;-54
2023/08/28 01:44:01;;;;;;;0.47;0.47;;;;;;;13.19;100.00;96532.41;29395;257;63009;-66
2023/08/28 01:44:35;;;;;;;0.50;0.50;;;;;;;13.19;100.00;96529.69;29395;314;63005;-66
2023/08/28 01:45:08;;;;;;;0.45;0.45;;;;;;;13.19;100.00;96523.44;29395;211;63009;-65
2023/08/28 01:45:41;;;;;;;0.50;0.50;;;;;;;13.20;100.00;96525.84;29395;229;63005;-54
2023/08/28 01:46:12;;;;;;;0.50;0.50;;;;;;;13.23;100.00;96524.41;29395;209;63009;-54
2023/08/28 01:46:44;;;;;;;0.40;0.40;;;;;;;13.25;100.00;96528.41;29394;287;64009;-64
2023/08/28 01:47:18;;;;;;;0.50;0.50;;;;;;;13.26;100.00;96519.13;29395;236;63009;-66
2023/08/28 01:47:50;;;;;;;0.50;0.50;;;;;;;13.24;100.00;96521.38;29395;213;63004;-64
2023/08/28 01:48:21;;;;;;;0.50;0.50;;;;;;;13.24;100.00;96515.13;29395;204;63009;-66
2023/08/28 01:48:53;;;;;;;0.43;0.43;;;;;;;13.21;100.00;96516.53;29394;216;64004;-65
2023/08/28 01:49:33;;;;;;;0.45;0.45;;;;;;;13.21;100.00;96515.75;29395;211;63008;-65
2023/08/28 01:50:05;;;;;;;0.50;0.50;;;;;;;13.23;100.00;96517.03;29395;229;63005;-66
2023/08/28 01:50:36;;;;;;;0.50;0.50;;;;;;;13.23;100.00;96511.59;29395;275;63009;-65
2023/08/28 01:51:09;;;;;;;0.50;0.50;;;;;;;13.25;100.00;96516.72;29394;258;64009;-55
2023/08/28 01:51:41;;;;;;;0.50;0.50;;;;;;;13.27;100.00;96515.28;29394;229;64013;-67
2023/08/28 01:52:13;;;;;;;0.40;0.40;;;;;;;13.28;100.00;96514.16;29394;212;64009;-66
2023/08/28 01:52:44;;;;;;;0.40;0.40;;;;;;;13.28;100.00;96518.81;29395;216;63009;-65
2023/08/28 01:53:16;;;;;;;0.50;0.50;;;;;;;13.24;100.00;96515.91;29395;222;63005;-55
2023/08/28 01:53:48;;;;;;;0.50;0.50;;;;;;;13.21;100.00;96522.00;29395;204;63009;-66
2023/08/28 01:54:20;;;;;;;0.50;0.50;;;;;;;13.19;100.00;96520.72;29395;210;63010;-66
2023/08/28 01:54:52;;;;;;;0.50;0.50;;;;;;;13.18;100.00;96521.81;29395;219;63009;-66
2023/08/28 01:56:26;;;;;;;0.40;0.40;;;;;;;13.16;100.00;96522.19;29395;229;63008;-65
2023/08/28 01:56:58;;;;;;;0.40;0.40;;;;;;;13.18;100.00;96527.28;29394;210;64033;-65
2023/08/28 01:57:30;;;;;;;0.50;0.50;;;;;;;13.16;100.00;96516.72;29395;326;63005;-55
2023/08/28 01:58:01;;;;;;;0.40;0.40;;;;;;;13.17;100.00;96518.31;29395;199;63009;-67
2023/08/28 01:58:39;;;;;;;0.40;0.40;;;;;;;13.17;100.00;96521.03;29395;226;63005;-66
2023/08/28 01:59:11;;;;;;;0.50;0.50;;;;;;;13.15;100.00;96511.56;29395;255;63009;-66
2023/08/28 01:59:44;;;;;;;0.50;0.50;;;;;;;13.11;100.00;96511.41;29394;213;64009;-65
2023/08/28 02:00:15;;;;;;;0.40;0.40;;;;;;;13.07;100.00;96510.44;29395;206;63009;-65
2023/08/28 02:00:47;;;;;;;0.40;0.40;;;;;;;13.04;100.00;96511.84;29395;236;63013;-66
2023/08/28 02:01:18;;;;;;;0.40;0.40;;;;;;;13.06;100.00;96504.19;29395;259;63009;-64
2023/08/28 02:01:49;;;;;;;0.50;0.50;;;;;;;13.07;100.00;96510.44;29395;225;63004;-65
2023/08/28 02:02:21;;;;;;;0.50;0.50;;;;;;;13.06;100.00;96511.53;29395;257;63009;-66
2023/08/28 02:02:52;;;;;;;0.50;0.50;;;;;;;13.06;100.00;96509.63;29395;211;63004;-65
2023/08/28 02:03:24;;;;;;;0.50;0.50;;;;;;;13.07;100.00;96507.69;29395;279;63009;-65
2023/08/28 02:03:57;;;;;;;0.50;0.50;;;;;;;13.06;100.00;96506.09;29394;224;64009;-54
2023/08/28 02:04:31;;;;;;;0.50;0.50;;;;;;;13.06;100.00;96497.94;29395;208;63008;-55
2023/08/28 02:05:03;;;;;;;0.50;0.50;;;;;;;13.07;100.00;96502.25;29395;204;63005;-55
2023/08/28 02:05:34;;;;;;;0.50;0.50;;;;;;;13.07;100.00;96499.53;29395;209;63009;-66
2023/08/28 02:06:06;;;;;;;0.45;0.45;;;;;;;13.05;100.00;96499.84;29395;208;63005;-66
2023/08/28 02:06:37;;;;;;;0.40;0.40;;;;;;;13.04;100.00;96503.69;29395;215;63009;-65
2023/08/28 02:07:08;;;;;;;0.40;0.40;;;;;;;13.02;100.00;96495.03;29395;206;63000;-65
2023/08/28 02:07:42;;;;;;;0.50;0.50;;;;;;;13.00;100.00;96500.00;29395;223;63009;-65
2023/08/28 02:08:13;;;;;;;0.50;0.50;;;;;;;12.99;100.00;96498.38;29394;202;64009;-66
2023/08/28 02:08:46;;;;;;;0.50;0.50;;;;;;;12.99;100.00;96495.66;29395;203;63009;-65
2023/08/28 02:09:17;;;;;;;0.40;0.40;;;;;;;12.99;100.00;96495.66;29395;244;63004;-66
2023/08/28 02:09:49;;;;;;;0.40;0.40;;;;;;;12.98;100.00;96490.53;29395;247;63009;-66
2023/08/28 02:10:20;;;;;;;0.45;0.45;;;;;;;12.99;100.00;96492.12;29395;257;63004;-65
2023/08/28 02:10:52;;;;;;;0.50;0.50;;;;;;;12.98;100.00;96485.88;29394;250;64013;-65
2023/08/28 02:11:25;;;;;;;0.40;0.40;;;;;;;12.99;100.00;96486.69;29395;212;63004;-55
2023/08/28 02:11:56;;;;;;;0.50;0.50;;;;;;;12.99;100.00;96486.69;29394;227;64013;-65
2023/08/28 02:12:28;;;;;;;0.50;0.50;;;;;;;12.99;100.00;96486.69;29395;221;63004;-66
2023/08/28 02:12:59;;;;;;;0.40;0.40;;;;;;;12.98;100.00;96480.44;29395;225;63009;-55
2023/08/28 02:13:31;;;;;;;0.40;0.40;;;;;;;12.99;100.00;96475.81;29394;240;64009;-65
2023/08/28 02:14:02;;;;;;;0.40;0.40;;;;;;;12.99;100.00;96481.25;29394;254;64014;-55
2023/08/28 02:14:34;;;;;;;0.50;0.50;;;;;;;12.98;100.00;96479.66;29395;230;63005;-66
2023/08/28 02:15:09;;;;;;;0.50;0.50;;;;;;;12.98;100.00;96479.66;29395;253;63009;-65
2023/08/28 02:15:42;;;;;;;0.40;0.40;;;;;;;12.99;100.00;96483.97;29395;263;63005;-65
2023/08/28 02:16:15;;;;;;;0.50;0.50;;;;;;;12.99;100.00;96481.25;29394;214;64013;-65
2023/08/28 02:16:47;;;;;;;0.50;0.50;;;;;;;12.99;100.00;96483.97;29395;270;63004;-65
2023/08/28 02:17:18;;;;;;;0.40;0.40;;;;;;;12.98;100.00;96480.44;29394;233;64013;-55
2023/08/28 02:17:49;;;;;;;0.40;0.40;;;;;;;12.98;100.00;96479.66;29395;202;63004;-65
2023/08/28 02:18:21;;;;;;;0.40;0.40;;;;;;;12.98;100.00;96480.44;29395;253;63019;-64
2023/08/28 02:18:52;;;;;;;0.40;0.40;;;;;;;12.97;100.00;96480.75;29394;230;64009;-65
2023/08/28 02:19:23;;;;;;;0.40;0.40;;;;;;;12.95;100.00;96477.56;29395;211;63008;-64
2023/08/28 02:19:54;;;;;;;0.40;0.40;;;;;;;12.93;100.00;96474.34;29395;231;63009;-63
2023/08/28 02:20:25;;;;;;;0.40;0.40;;;;;;;12.92;100.00;96470.81;29395;246;63009;-52
2023/08/28 02:20:57;;;;;;;0.40;0.40;;;;;;;12.92;100.00;96467.28;29394;214;64009;-66
2023/08/28 02:21:28;;;;;;;0.40;0.40;;;;;;;12.91;100.00;96466.50;29394;246;64014;-54
2023/08/28 02:22:00;;;;;;;0.40;0.40;;;;;;;12.93;100.00;96461.53;29395;224;63005;-65
2023/08/28 02:22:31;;;;;;;0.40;0.40;;;;;;;12.94;100.00;96468.56;29395;223;63009;-66
2023/08/28 02:23:03;;;;;;;0.40;0.40;;;;;;;12.93;100.00;96460.72;29395;260;63005;-54
2023/08/28 02:23:34;;;;;;;0.40;0.40;;;;;;;12.93;100.00;96461.53;29395;236;63009;-65
2023/08/28 02:24:07;;;;;;;0.40;0.40;;;;;;;12.94;100.00;96457.69;29395;220;63005;-65
2023/08/28 02:24:38;;;;;;;0.50;0.50;;;;;;;12.96;100.00;96457.37;29395;207;63009;-64
2023/08/28 02:25:09;;;;;;;0.40;0.40;;;;;;;12.98;100.00;96460.59;29395;208;63004;-66
2023/08/28 02:25:41;;;;;;;0.50;0.50;;;;;;;12.97;100.00;96458.97;29395;207;63009;-64
2023/08/28 02:26:12;;;;;;;0.47;0.47;;;;;;;12.97;100.00;96456.25;29395;239;63004;-64
2023/08/28 02:26:44;;;;;;;0.40;0.40;;;;;;;12.95;100.00;96461.22;29394;221;64013;-65
2023/08/28 02:27:15;;;;;;;0.40;0.40;;;;;;;12.92;100.00;96453.69;29395;238;63004;-64
2023/08/28 02:27:47;;;;;;;0.50;0.50;;;;;;;12.92;100.00;96459.13;29395;251;63009;-65
2023/08/28 02:28:19;;;;;;;0.50;0.50;;;;;;;12.92;100.00;96456.41;29395;237;63005;-65
2023/08/28 02:28:50;;;;;;;0.50;0.50;;;;;;;12.92;100.00;96448.22;29395;249;63009;-65
2023/08/28 02:29:21;;;;;;;0.50;0.50;;;;;;;12.92;100.00;96448.22;29394;222;64009;-66
2023/08/28 02:29:54;;;;;;;0.50;0.50;;;;;;;12.92;100.00;96453.69;29395;231;63009;-65
2023/08/28 02:30:25;;;;;;;0.50;0.50;;;;;;;12.90;100.00;96450.47;29395;220;63005;-54
2023/08/28 02:31:00;;;;;;;0.50;0.50;;;;;;;12.90;100.00;96445.03;29395;204;63009;-65
2023/08/28 02:31:31;;;;;;;0.50;0.50;;;;;;;12.90;100.00;96445.81;29395;231;63005;-65
2023/08/28 02:32:06;;;;;;;0.50;0.50;;;;;;;12.91;100.00;96441.97;29395;226;63009;-65
2023/08/28 02:32:38;;;;;;;0.50;0.50;;;;;;;12.89;100.00;96444.22;29395;202;63004;-64
2023/08/28 02:33:09;;;;;;;0.50;0.50;;;;;;;12.90;100.00;96443.09;29395;227;63009;-54
2023/08/28 02:33:41;;;;;;;0.50;0.50;;;;;;;12.91;100.00;96446.63;29395;232;63004;-65
2023/08/28 02:34:12;;;;;;;0.50;0.50;;;;;;;12.90;100.00;96445.81;29395;197;63026;-65
2023/08/28 02:34:43;;;;;;;0.50;0.50;;;;;;;12.91;100.00;96443.91;29394;218;64008;-54
2023/08/28 02:35:15;;;;;;;0.40;0.40;;;;;;;12.89;100.00;96443.41;29395;218;63009;-65
2023/08/28 02:35:46;;;;;;;0.50;0.50;;;;;;;12.87;100.00;96445.66;29395;237;63005;-64
2023/08/28 02:36:19;;;;;;;0.40;0.40;;;;;;;12.85;100.00;96443.25;29395;215;63009;-64
2023/08/28 02:36:50;;;;;;;0.40;0.40;;;;;;;12.85;100.00;96442.44;29395;300;63005;-64
2023/08/28 02:37:22;;;;;;;0.50;0.50;;;;;;;12.85;100.00;96442.44;29395;226;63009;-65
2023/08/28 02:37:53;;;;;;;0.50;0.50;;;;;;;12.86;100.00;96444.06;29395;212;63000;-64
2023/08/28 02:38:24;;;;;;;0.45;0.45;;;;;;;12.86;100.00;96449.50;29395;249;63009;-64
2023/08/28 02:38:56;;;;;;;0.40;0.40;;;;;;;12.86;100.00;96438.59;29394;200;64009;-65
2023/08/28 02:39:30;;;;;;;0.50;0.50;;;;;;;12.83;100.00;96439.25;29395;225;63009;-65
2023/08/28 02:40:07;;;;;;;0.50;0.50;;;;;;;12.82;100.00;96443.13;29395;222;63004;-64
2023/08/28 02:40:39;;;;;;;0.50;0.50;;;;;;;12.81;100.00;96447.75;29395;202;63009;-65
2023/08/28 02:41:10;;;;;;;0.45;0.45;;;;;;;12.81;100.00;96441.50;29395;252;63004;-65